Time;durP1;ratioP1;P1;durP2;ratioP2;P2;SDS_P1;SDS_P2;PMS_P1;PMS_P2;Temp;Humidity;BMP_temperature;BMP_pressure;BME280_temperature;BME280_humidity;BME280_pressure;Samples;Min_cycle;Max_cycle;Signal;HPM_P1;HPM_P2
2024/03/18 00:01:58;;;;;;;;;6.67;6.67;;;;;23.45;46.86;101402.72;4900869;28;46185;-78
2024/03/18 00:04:23;;;;;;;;;4.33;4.00;;;;;23.30;46.37;101384.06;4901270;28;45307;-78
2024/03/18 00:06:48;;;;;;;;;8.33;7.33;;;;;23.33;46.70;101380.22;4901555;28;45442;-79
2024/03/18 00:09:14;;;;;;;;;5.33;5.00;;;;;22.97;46.84;101324.06;4901353;28;45591;-79
2024/03/18 00:11:39;;;;;;;;;7.00;5.67;;;;;23.34;46.63;101381.91;4900980;28;46199;-78
2024/03/18 00:14:05;;;;;;;;;8.33;7.00;;;;;23.42;47.07;101394.28;4900973;28;45408;-79
2024/03/18 00:16:30;;;;;;;;;7.33;7.00;;;;;23.42;46.90;101388.97;4901035;28;45412;-79
2024/03/18 00:18:55;;;;;;;;;6.33;6.33;;;;;23.41;46.78;101390.81;4901365;28;45427;-79
2024/03/18 00:21:21;;;;;;;;;6.67;6.00;;;;;23.26;46.78;101361.53;4900989;28;46853;-79
2024/03/18 00:23:46;;;;;;;;;8.00;6.00;;;;;23.40;46.56;101387.31;4901077;28;45445;-79
2024/03/18 00:26:11;;;;;;;;;9.67;7.00;;;;;23.37;46.57;101370.91;4901135;28;45516;-78
2024/03/18 00:28:37;;;;;;;;;7.67;7.33;;;;;23.36;46.66;101372.75;4901133;28;45371;-79
2024/03/18 00:31:03;;;;;;;;;7.00;6.33;;;;;23.39;47.09;101374.22;4900509;28;46392;-78
2024/03/18 00:33:28;;;;;;;;;6.33;5.00;;;;;23.19;46.74;101332.19;4901033;28;45437;-78
2024/03/18 00:35:58;;;;;;;;;8.00;8.00;;;;;23.39;46.86;101367.06;4901135;28;45328;-79
2024/03/18 00:38:24;;;;;;;;;6.00;6.00;;;;;23.40;46.95;101365.25;4900940;28;45232;-78
2024/03/18 00:40:56;;;;;;;;;5.00;5.00;;;;;23.39;46.95;101375.03;4900637;28;46628;-79
2024/03/18 00:43:22;;;;;;;;;5.33;5.33;;;;;23.39;46.72;101363.59;4900701;28;45333;-78
2024/03/18 00:45:48;;;;;;;;;6.00;4.33;;;;;23.39;46.38;101361.75;4900443;29;45296;-78
2024/03/18 00:48:13;;;;;;;;;7.33;5.00;;;;;23.36;46.63;101356.00;4900721;28;45570;-78
2024/03/18 00:50:39;;;;;;;;;4.00;4.00;;;;;23.40;46.92;101357.28;4900658;28;45620;-78
2024/03/18 00:53:04;;;;;;;;;6.33;5.00;;;;;23.35;46.95;101341.88;4900556;28;45343;-78
2024/03/18 00:55:33;;;;;;;;;5.00;5.00;;;;;23.28;46.70;101343.59;4900758;28;45399;-78
2024/03/18 00:57:58;;;;;;;;;7.33;6.00;;;;;23.28;46.54;101356.88;4900670;28;45386;-78
2024/03/18 01:00:24;;;;;;;;;5.00;5.00;;;;;23.31;46.75;101375.09;4898889;28;46461;-79
2024/03/18 01:02:49;;;;;;;;;6.67;6.67;;;;;23.28;46.63;101373.63;4900442;29;48806;-79
2024/03/18 01:05:14;;;;;;;;;4.67;4.67;;;;;23.29;46.90;101374.44;4900627;29;45499;-79
2024/03/18 01:07:40;;;;;;;;;7.00;5.67;;;;;23.38;46.69;101394.63;4900490;28;45439;-78
2024/03/18 01:10:06;;;;;;;;;5.00;5.00;;;;;23.33;46.81;101378.41;4900354;28;45966;-79
2024/03/18 01:12:31;;;;;;;;;7.00;7.00;;;;;23.37;46.96;101387.66;4900303;28;45651;-78
2024/03/18 01:14:57;;;;;;;;;7.00;7.00;;;;;23.36;46.62;101383.38;4899982;28;45591;-78
2024/03/18 01:17:22;;;;;;;;;7.00;7.00;;;;;23.26;46.48;101378.25;4900419;28;45405;-77
2024/03/18 01:19:47;;;;;;;;;8.33;8.00;;;;;23.20;46.69;101375.50;4900191;28;46287;-78
2024/03/18 01:22:14;;;;;;;;;7.00;7.00;;;;;23.27;46.67;101379.94;4900314;28;45209;-78
2024/03/18 01:24:40;;;;;;;;;7.00;7.00;;;;;23.21;46.98;101382.47;4900292;28;45296;-79
2024/03/18 01:27:05;;;;;;;;;9.00;8.00;;;;;23.32;46.80;101392.69;4900037;28;45433;-78
2024/03/18 01:29:30;;;;;;;;;6.00;6.00;;;;;23.32;46.42;101394.50;4899819;28;46943;-78
2024/03/18 01:31:56;;;;;;;;;5.33;5.33;;;;;23.27;46.63;101390.56;4899983;28;45394;-78
2024/03/18 01:34:22;;;;;;;;;7.00;7.00;;;;;23.15;46.80;101376.88;4900249;28;45392;-78
2024/03/18 01:36:47;;;;;;;;;6.67;6.67;;;;;23.35;46.93;101413.56;4900116;28;45356;-78
2024/03/18 01:39:18;;;;;;;;;6.67;6.67;;;;;23.36;46.95;101411.75;4899949;28;45296;-79
2024/03/18 01:41:43;;;;;;;;;8.00;6.33;;;;;23.36;46.89;101419.72;4899899;28;45344;-78
2024/03/18 01:44:09;;;;;;;;;6.00;6.00;;;;;23.35;46.44;101418.88;4899507;28;45372;-78
2024/03/18 01:46:35;;;;;;;;;7.00;7.00;;;;;23.35;46.47;101423.34;4900021;28;45499;-78
2024/03/18 01:49:01;;;;;;;;;6.00;6.00;;;;;23.35;46.63;101426.00;4899750;28;45418;-77
2024/03/18 01:51:28;;;;;;;;;6.33;6.33;;;;;23.34;47.01;101422.53;4899817;28;45397;-77
2024/03/18 01:53:53;;;;;;;;;6.67;6.67;;;;;23.29;47.06;101419.56;4899759;28;45348;-77
2024/03/18 01:56:19;;;;;;;;;5.00;5.00;;;;;23.33;46.39;101420.88;4899729;28;45491;-78
2024/03/18 01:58:47;;;;;;;;;7.00;7.00;;;;;23.28;46.90;101402.00;4899255;28;46219;-78
2024/03/18 02:01:13;;;;;;;;;6.67;5.00;;;;;23.34;46.44;101416.41;4899635;28;45317;-78
2024/03/18 02:03:39;;;;;;;;;8.00;6.00;;;;;23.34;46.60;101406.59;4899704;28;45506;-79
2024/03/18 02:06:06;;;;;;;;;9.00;6.67;;;;;23.34;46.71;101430.50;4899627;28;45324;-78
2024/03/18 02:08:33;;;;;;;;;7.00;7.00;;;;;23.34;46.60;101427.84;4899443;28;46890;-78
2024/03/18 02:10:58;;;;;;;;;8.00;5.00;;;;;23.22;46.49;101403.53;4898885;28;45348;-78
2024/03/18 02:13:23;;;;;;;;;5.00;5.00;;;;;23.23;46.55;101402.53;4899170;28;45455;-78
2024/03/18 02:15:49;;;;;;;;;7.33;6.00;;;;;23.36;46.60;101427.69;4899496;29;45266;-79
2024/03/18 02:18:14;;;;;;;;;5.00;4.00;;;;;23.37;46.92;101424.00;4899270;28;46179;-78
2024/03/18 02:20:40;;;;;;;;;4.33;4.33;;;;;23.32;46.91;101415.75;4899454;28;45577;-78
2024/03/18 02:23:06;;;;;;;;;5.67;5.00;;;;;23.36;46.50;101425.03;4899498;28;45327;-78
2024/03/18 02:25:31;;;;;;;;;6.00;6.00;;;;;23.32;46.47;101426.34;4899351;28;45315;-79
2024/03/18 02:27:56;;;;;;;;;4.67;4.67;;;;;22.92;46.43;101342.31;4898930;28;46056;-79
2024/03/18 02:30:22;;;;;;;;;5.67;5.67;;;;;23.21;46.69;101398.41;4899428;28;45479;-78
2024/03/18 02:32:47;;;;;;;;;6.00;6.00;;;;;23.24;46.33;101390.91;4899389;28;45355;-79
2024/03/18 02:35:17;;;;;;;;;5.33;5.33;;;;;23.34;46.65;101398.63;4899329;28;45273;-78
2024/03/18 02:37:44;;;;;;;;;7.33;7.00;;;;;23.30;46.72;101397.34;4899097;28;46692;-78
2024/03/18 02:40:09;;;;;;;;;6.00;6.00;;;;;23.33;46.70;101406.78;4899134;28;45300;-78
2024/03/18 02:42:37;;;;;;;;;6.67;6.67;;;;;23.18;46.87;101384.47;4898946;28;45534;-78
2024/03/18 02:45:05;;;;;;;;;7.33;6.33;;;;;23.29;46.30;101414.25;4899261;28;45270;-78
2024/03/18 02:47:31;;;;;;;;;8.00;6.67;;;;;23.29;46.69;101416.91;4898961;28;46575;-78
2024/03/18 02:49:56;;;;;;;;;6.00;6.00;;;;;23.24;46.60;101412.13;4899031;28;45422;-78
2024/03/18 02:52:22;;;;;;;;;6.00;6.00;;;;;23.32;46.88;101421.03;4899146;28;45368;-78
2024/03/18 02:54:47;;;;;;;;;6.67;6.67;;;;;23.32;46.86;101429.00;4899105;28;45332;-78
2024/03/18 02:57:12;;;;;;;;;6.33;6.33;;;;;23.28;46.58;101415.28;4898590;28;45357;-78
2024/03/18 02:59:37;;;;;;;;;7.00;6.00;;;;;23.31;46.85;101427.38;4898888;28;45437;-78
2024/03/18 03:02:03;;;;;;;;;6.67;6.33;;;;;23.32;46.69;101426.34;4899152;28;45367;-78
2024/03/18 03:04:29;;;;;;;;;4.67;3.33;;;;;23.32;46.95;101423.69;4899116;29;45317;-79
2024/03/18 03:06:54;;;;;;;;;6.00;4.33;;;;;23.21;46.52;101411.69;4898822;29;47256;-78
2024/03/18 03:09:20;;;;;;;;;5.00;4.67;;;;;23.31;46.89;101438.84;4898820;28;45248;-78
2024/03/18 03:11:45;;;;;;;;;5.67;5.67;;;;;23.23;46.64;101420.28;4898464;28;45229;-79
2024/03/18 03:14:10;;;;;;;;;5.33;5.33;;;;;23.31;46.84;101441.47;4898896;28;45277;-78
2024/03/18 03:16:36;;;;;;;;;7.00;6.00;;;;;23.23;46.79;101415.81;4898703;28;46149;-78
2024/03/18 03:19:01;;;;;;;;;6.00;6.00;;;;;23.31;46.32;101433.53;4898518;28;45339;-78
2024/03/18 03:21:27;;;;;;;;;5.00;5.00;;;;;23.31;46.58;101430.88;4898927;28;45297;-78
2024/03/18 03:23:52;;;;;;;;;6.67;6.67;;;;;23.32;46.70;101429.00;4899860;28;45271;-78
2024/03/18 03:26:18;;;;;;;;;7.33;5.00;;;;;23.25;46.83;101415.63;4901437;28;46086;-78
2024/03/18 03:28:44;;;;;;;;;6.33;5.33;;;;;23.21;46.86;101406.38;4902063;28;45695;-78
2024/03/18 03:31:09;;;;;;;;;5.00;4.67;;;;;23.15;46.50;101399.91;4901826;28;45357;-78
2024/03/18 03:33:35;;;;;;;;;6.00;6.00;;;;;23.31;46.69;101436.19;4901884;28;45399;-78
2024/03/18 03:36:01;;;;;;;;;4.00;4.00;;;;;23.32;46.66;101434.31;4901874;28;45408;-78
2024/03/18 03:38:26;;;;;;;;;6.67;6.67;;;;;23.14;46.89;101406.22;4901721;28;45532;-78
2024/03/18 03:40:53;;;;;;;;;7.67;5.67;;;;;23.33;46.39;101442.13;4901479;29;45452;-78
2024/03/18 03:43:19;;;;;;;;;4.00;4.00;;;;;23.12;46.60;101403.75;4901769;28;45486;-77
2024/03/18 03:46:10;;;;;;;;;6.00;6.00;;;;;23.29;46.38;101436.34;4901505;29;46297;-77
2024/03/18 03:48:35;;;;;;;;;7.00;5.33;;;;;23.33;46.79;101442.13;4901465;28;45677;-78
2024/03/18 03:51:01;;;;;;;;;5.33;4.33;;;;;23.31;46.88;101438.84;4901758;28;45396;-78
2024/03/18 03:53:27;;;;;;;;;5.67;4.33;;;;;23.33;46.73;101441.31;4901788;28;45329;-78
2024/03/18 03:55:55;;;;;;;;;5.00;5.00;;;;;23.24;46.32;101425.41;4901057;28;46178;-78
2024/03/18 03:58:21;;;;;;;;;6.00;6.00;;;;;22.98;46.79;101388.56;4901333;28;45320;-78
2024/03/18 04:00:47;;;;;;;;;6.67;6.67;;;;;23.33;46.49;101438.66;4901492;28;45353;-78
2024/03/18 04:03:18;;;;;;;;;5.33;5.33;;;;;23.29;46.75;101427.53;4901537;28;45317;-77
2024/03/18 04:05:44;;;;;;;;;5.00;5.00;;;;;23.21;46.66;101423.13;4901334;28;45475;-78
2024/03/18 04:08:10;;;;;;;;;6.00;5.00;;;;;23.31;46.82;101438.00;4901295;29;45312;-77
2024/03/18 04:10:35;;;;;;;;;6.67;6.00;;;;;23.31;46.45;101438.00;4901088;28;45277;-78
2024/03/18 04:13:01;;;;;;;;;7.33;4.00;;;;;23.30;46.58;101447.78;4901184;28;45388;-77
2024/03/18 04:15:27;;;;;;;;;6.00;6.00;;;;;23.14;46.57;101425.63;4901064;28;46208;-77
2024/03/18 04:17:53;;;;;;;;;4.00;4.00;;;;;23.17;46.54;101427.09;4901050;28;45465;-78
2024/03/18 04:20:18;;;;;;;;;5.00;5.00;;;;;23.29;46.67;101454.91;4901153;28;45415;-78
2024/03/18 04:22:53;;;;;;;;;4.33;4.33;;;;;23.28;46.25;101447.13;4901223;28;45639;-78
2024/03/18 04:25:20;;;;;;;;;4.33;4.33;;;;;23.15;46.56;101437.91;4900581;29;46323;-78
2024/03/18 04:27:46;;;;;;;;;8.00;6.67;;;;;23.10;45.95;101429.66;4901062;28;45377;-78
2024/03/18 04:30:19;;;;;;;;;5.00;5.00;;;;;23.28;46.24;101463.06;4901131;28;45494;-77
2024/03/18 04:32:50;;;;;;;;;5.00;4.67;;;;;23.17;46.76;101443.03;4900927;28;45360;-78
2024/03/18 04:35:18;;;;;;;;;8.00;7.00;;;;;23.28;46.10;101457.75;4900560;28;45280;-77
2024/03/18 04:37:47;;;;;;;;;6.00;5.00;;;;;23.20;46.29;101445.34;4900304;28;45316;-77
2024/03/18 04:40:13;;;;;;;;;7.00;5.00;;;;;23.18;46.52;101436.75;4901082;28;45358;-77
2024/03/18 04:42:39;;;;;;;;;6.67;6.00;;;;;23.23;46.53;101449.50;4900798;28;45435;-77
2024/03/18 04:45:06;;;;;;;;;3.33;3.00;;;;;23.28;46.39;101463.91;4900581;28;46351;-78
2024/03/18 04:47:35;;;;;;;;;5.00;4.33;;;;;23.31;46.33;101464.56;4900778;28;45447;-77
2024/03/18 04:50:00;;;;;;;;;7.33;5.67;;;;;23.24;45.98;101456.44;4900886;28;45473;-76
2024/03/18 04:52:25;;;;;;;;;4.67;4.67;;;;;23.26;45.98;101452.59;4900480;28;45337;-77
2024/03/18 04:54:50;;;;;;;;;5.00;5.00;;;;;23.32;46.22;101459.06;4900453;29;50563;-78
2024/03/18 04:57:16;;;;;;;;;5.00;5.00;;;;;23.32;46.57;101456.41;4900602;28;45400;-77
2024/03/18 04:59:43;;;;;;;;;6.33;5.00;;;;;23.31;46.06;101453.94;4900511;28;45364;-77
2024/03/18 05:02:08;;;;;;;;;4.00;4.00;;;;;23.10;46.54;101432.28;4900653;28;45313;-76
2024/03/18 05:04:33;;;;;;;;;6.00;6.00;;;;;23.29;46.23;101454.09;4900475;28;45941;-77
2024/03/18 05:06:59;;;;;;;;;4.33;4.33;;;;;23.34;46.54;101469.50;4900062;28;45380;-78
2024/03/18 05:09:25;;;;;;;;;4.00;4.00;;;;;23.24;45.97;101453.78;4900645;28;45311;-77
2024/03/18 05:11:50;;;;;;;;;5.67;5.00;;;;;23.34;46.14;101472.16;4900478;29;45408;-77
2024/03/18 05:14:16;;;;;;;;;4.33;4.00;;;;;23.33;45.95;101462.53;4900125;28;45430;-78
2024/03/18 05:16:41;;;;;;;;;6.67;5.33;;;;;23.27;46.53;101456.09;4900475;28;45276;-77
2024/03/18 05:19:06;;;;;;;;;3.33;3.00;;;;;23.21;46.17;101454.16;4900391;28;45382;-77
2024/03/18 05:21:32;;;;;;;;;7.33;5.33;;;;;23.31;46.52;101469.84;4899782;28;47015;-77
2024/03/18 05:23:58;;;;;;;;;4.33;4.00;;;;;23.26;46.24;101468.53;4900163;28;45320;-77
2024/03/18 05:26:23;;;;;;;;;4.33;4.00;;;;;23.15;46.20;101445.03;4900033;28;45321;-77
2024/03/18 05:28:48;;;;;;;;;7.00;5.67;;;;;23.30;46.03;101466.38;4900262;28;45297;-77
2024/03/18 05:31:14;;;;;;;;;4.00;4.00;;;;;23.31;45.86;101472.50;4900330;28;45419;-78
2024/03/18 05:33:39;;;;;;;;;4.67;4.67;;;;;23.32;46.23;101482.13;4899660;29;50119;-77
2024/03/18 05:36:05;;;;;;;;;5.33;5.00;;;;;23.32;46.42;101482.13;4899789;28;45435;-78
2024/03/18 05:38:30;;;;;;;;;4.00;4.00;;;;;23.24;46.20;101467.88;4900004;28;45428;-77
2024/03/18 05:40:55;;;;;;;;;4.33;4.33;;;;;23.13;45.81;101455.84;4900157;29;45418;-78
2024/03/18 05:43:20;;;;;;;;;4.67;4.67;;;;;23.28;45.77;101479.81;4899926;28;45371;-77
2024/03/18 05:45:46;;;;;;;;;4.00;4.00;;;;;23.20;46.13;101463.09;4899570;28;45364;-78
2024/03/18 05:48:11;;;;;;;;;6.00;5.00;;;;;23.26;46.04;101479.16;4899541;28;45367;-77
2024/03/18 05:50:37;;;;;;;;;5.33;4.33;;;;;23.27;45.92;101480.81;4899322;29;51515;-78
2024/03/18 05:53:03;;;;;;;;;4.00;4.00;;;;;23.27;46.01;101485.28;4899689;29;45440;-78
2024/03/18 05:55:29;;;;;;;;;3.00;3.00;;;;;23.28;46.26;101482.47;4899716;28;45339;-79
2024/03/18 05:57:57;;;;;;;;;4.00;4.00;;;;;23.20;45.79;101484.34;4899744;29;45320;-78
2024/03/18 06:00:23;;;;;;;;;7.00;5.33;;;;;22.92;46.08;101444.00;4899640;28;45567;-78
2024/03/18 06:02:49;;;;;;;;;5.33;4.00;;;;;23.18;45.88;101477.38;4899466;28;46297;-78
2024/03/18 06:05:15;;;;;;;;;4.00;4.00;;;;;23.23;45.99;101487.47;4899257;28;45375;-78
2024/03/18 06:07:42;;;;;;;;;4.67;4.67;;;;;23.28;46.10;101493.09;4898498;29;45307;-78
2024/03/18 06:10:07;;;;;;;;;6.00;5.33;;;;;23.16;45.89;101481.22;4899934;28;45455;-78
2024/03/18 06:12:32;;;;;;;;;7.00;7.00;;;;;23.29;46.18;101499.22;4899202;28;46326;-79
2024/03/18 06:14:58;;;;;;;;;4.33;4.33;;;;;23.29;46.06;101510.66;4899424;28;45483;-78
2024/03/18 06:17:23;;;;;;;;;5.00;5.00;;;;;23.21;45.91;101499.28;4899758;28;45238;-78
2024/03/18 06:19:57;;;;;;;;;5.67;5.00;;;;;23.27;45.94;101510.03;4899225;28;45366;-78
2024/03/18 06:22:23;;;;;;;;;5.00;5.00;;;;;23.14;45.51;101493.81;4899319;29;46332;-79
2024/03/18 06:27:33;;;;;;;;;5.00;4.00;;;;;23.20;45.75;101506.41;4899521;29;45350;-78
2024/03/18 06:29:58;;;;;;;;;4.00;4.00;;;;;23.25;45.59;101527.13;4899357;28;45323;-79
2024/03/18 06:32:24;;;;;;;;;7.00;5.00;;;;;23.22;45.88;101527.47;4899249;28;45949;-82
2024/03/18 06:34:49;;;;;;;;;4.67;4.67;;;;;23.34;46.02;101552.63;4899015;28;45408;-80
2024/03/18 06:37:14;;;;;;;;;5.33;4.67;;;;;23.37;45.70;101562.06;4899385;28;45468;-76
2024/03/18 06:39:39;;;;;;;;;1.00;1.00;;;;;23.40;45.78;101559.91;4895300;28;45428;-76
2024/03/18 06:42:05;;;;;;;;;7.00;5.00;;;;;23.33;46.34;101550.16;4888301;28;45336;-79
2024/03/18 06:44:30;;;;;;;;;5.67;4.33;;;;;23.35;46.18;101550.81;4898782;28;45340;-76
2024/03/18 06:46:56;;;;;;;;;4.00;4.00;;;;;23.41;46.01;101555.44;4897675;28;45410;-77
2024/03/18 06:49:21;;;;;;;;;5.00;4.00;;;;;23.43;46.25;101552.59;4895142;28;45317;-76
2024/03/18 06:51:48;;;;;;;;;5.00;5.00;;;;;23.32;45.93;101544.00;4898219;28;45320;-76
2024/03/18 06:54:14;;;;;;;;;4.00;4.00;;;;;23.37;46.46;101546.97;4898459;28;45437;-78
2024/03/18 06:56:39;;;;;;;;;2.00;2.00;;;;;23.45;46.53;101561.22;4897542;28;45686;-75
2024/03/18 06:59:04;;;;;;;;;4.00;4.00;;;;;23.44;46.42;101567.56;4900860;28;45352;-76
2024/03/18 07:01:30;;;;;;;;;6.67;5.00;;;;;23.44;46.79;101571.03;4901558;28;46844;-77
2024/03/18 07:03:55;;;;;;;;;6.00;3.67;;;;;23.44;46.80;101567.56;4901319;28;45390;-77
2024/03/18 07:06:20;;;;;;;;;5.00;4.00;;;;;23.42;46.61;101562.41;4901849;29;45377;-83
2024/03/18 07:08:46;;;;;;;;;4.00;4.00;;;;;23.46;46.30;101577.00;4902112;28;45340;-83
2024/03/18 07:11:11;;;;;;;;;6.00;5.33;;;;;23.50;46.26;101581.00;4901647;28;46065;-80
2024/03/18 07:13:38;;;;;;;;;3.00;3.00;;;;;23.50;46.18;101570.38;4901758;28;45270;-80
2024/03/18 07:16:04;;;;;;;;;4.33;3.67;;;;;23.62;45.93;101584.09;4902900;28;45490;-78
2024/03/18 07:18:29;;;;;;;;;5.00;4.00;;;;;23.67;45.81;101578.28;4901308;28;45315;-75
2024/03/18 07:20:55;;;;;;;;;6.00;6.00;;;;;23.71;45.01;101578.72;4901125;28;46309;-74
2024/03/18 07:23:22;;;;;;;;;7.00;7.00;;;;;23.59;43.82;101562.38;4901948;28;45230;-75
2024/03/18 07:25:49;;;;;;;;;7.00;6.00;;;;;23.65;44.20;101574.13;4901924;28;45289;-74
2024/03/18 07:28:14;;;;;;;;;6.00;5.00;;;;;23.64;44.23;101578.59;4901733;28;45457;-75
2024/03/18 07:30:39;;;;;;;;;6.00;5.00;;;;;23.65;44.53;101574.13;4901791;28;45967;-75
2024/03/18 07:33:06;;;;;;;;;5.00;5.00;;;;;23.59;44.91;101573.81;4900029;29;45425;-75
2024/03/18 07:35:31;;;;;;;;;5.00;5.00;;;;;23.51;44.56;101561.41;4902024;28;45544;-75
2024/03/18 07:37:57;;;;;;;;;5.67;5.00;;;;;23.65;44.99;101588.25;4901632;29;45351;-75
2024/03/18 07:40:22;;;;;;;;;6.33;6.00;;;;;23.53;44.68;101571.84;4901581;28;45956;-75
2024/03/18 07:42:48;;;;;;;;;6.00;3.67;;;;;23.64;44.78;101589.22;4901720;28;45469;-75
2024/03/18 07:45:13;;;;;;;;;5.00;4.00;;;;;23.64;44.60;101594.56;4901818;28;45415;-75
2024/03/18 07:47:38;;;;;;;;;6.00;4.00;;;;;23.62;44.81;101592.06;4901378;28;45559;-74
2024/03/18 07:50:05;;;;;;;;;3.33;3.00;;;;;23.62;44.97;101591.25;4901666;28;47294;-75
2024/03/18 07:52:30;;;;;;;;;3.33;3.33;;;;;23.62;44.93;101586.75;4901464;28;45396;-76
2024/03/18 07:54:56;;;;;;;;;4.67;4.67;;;;;23.59;45.18;101587.09;4901715;28;45316;-74
2024/03/18 07:57:21;;;;;;;;;4.00;3.00;;;;;23.50;44.90;101575.66;4901597;28;45513;-74
2024/03/18 07:59:46;;;;;;;;;7.00;5.00;;;;;23.54;44.85;101584.13;4901368;28;45446;-74
2024/03/18 08:02:12;;;;;;;;;5.67;4.00;;;;;23.59;45.33;101592.41;4901124;28;45265;-75
2024/03/18 08:04:37;;;;;;;;;6.67;5.67;;;;;23.58;45.43;101592.56;4901677;28;45221;-74
2024/03/18 08:07:03;;;;;;;;;3.00;3.00;;;;;23.58;45.07;101598.72;4901540;28;45455;-75
2024/03/18 08:09:30;;;;;;;;;4.33;4.00;;;;;23.51;45.01;101590.63;4900583;28;46442;-75
2024/03/18 08:11:56;;;;;;;;;3.33;3.33;;;;;23.58;44.92;101603.19;4900871;28;45538;-75
2024/03/18 08:14:21;;;;;;;;;5.33;4.33;;;;;23.56;44.90;101606.03;4901192;28;45486;-74
2024/03/18 08:16:46;;;;;;;;;5.33;5.33;;;;;23.57;45.20;101605.03;4901146;28;45301;-75
2024/03/18 08:19:12;;;;;;;;;4.00;4.00;;;;;23.46;45.04;101589.44;4901139;28;46095;-75
2024/03/18 08:21:37;;;;;;;;;4.00;4.00;;;;;23.55;45.35;101604.38;4901130;28;45344;-75
2024/03/18 08:24:03;;;;;;;;;4.00;4.00;;;;;23.55;45.52;101609.69;4901173;28;45384;-75
2024/03/18 08:26:28;;;;;;;;;5.67;3.00;;;;;23.59;45.15;101610.19;4900969;28;45328;-74
2024/03/18 08:28:54;;;;;;;;;3.67;3.67;;;;;23.59;45.47;101618.16;4901042;28;47169;-75
2024/03/18 08:31:20;;;;;;;;;5.00;5.00;;;;;23.60;45.70;101612.66;4900677;28;45345;-76
2024/03/18 08:33:45;;;;;;;;;4.00;4.00;;;;;23.58;45.10;101612.00;4901061;28;45770;-75
2024/03/18 08:36:12;;;;;;;;;3.67;3.67;;;;;23.57;45.57;101613.03;4901195;28;45289;-75
2024/03/18 08:38:38;;;;;;;;;4.33;3.67;;;;;23.60;45.27;101614.50;4900809;28;46072;-74
2024/03/18 08:41:04;;;;;;;;;3.67;3.67;;;;;23.44;45.25;101592.28;4900828;28;45405;-76
2024/03/18 08:43:29;;;;;;;;;5.33;3.67;;;;;23.66;45.06;101621.75;4901017;29;45476;-75
2024/03/18 08:45:56;;;;;;;;;5.33;4.00;;;;;23.71;45.39;101631.88;4900574;28;45434;-75
2024/03/18 08:48:22;;;;;;;;;6.00;5.00;;;;;23.69;44.81;101631.22;4900840;28;46069;-75
2024/03/18 08:50:48;;;;;;;;;3.00;3.00;;;;;23.78;45.47;101643.50;4900692;28;45492;-75
2024/03/18 08:53:14;;;;;;;;;5.00;4.33;;;;;23.82;45.03;101643.94;4900642;28;45432;-75
2024/03/18 08:55:40;;;;;;;;;6.00;4.00;;;;;23.84;45.56;101641.94;4900761;28;45379;-75
2024/03/18 08:58:06;;;;;;;;;5.00;5.00;;;;;23.79;45.29;101636.31;4900387;28;46326;-75
2024/03/18 09:00:32;;;;;;;;;3.33;3.33;;;;;23.87;45.06;101648.75;4900204;28;45440;-74
2024/03/18 09:02:57;;;;;;;;;3.67;3.67;;;;;23.84;45.17;101634.81;4900568;28;45337;-74
2024/03/18 09:05:23;;;;;;;;;4.67;4.00;;;;;23.82;45.18;101628.00;4900671;28;45491;-74
2024/03/18 09:07:49;;;;;;;;;4.00;4.00;;;;;23.87;45.51;101638.94;4900321;28;46574;-74
2024/03/18 09:10:15;;;;;;;;;4.33;2.67;;;;;23.95;45.72;101646.06;4900475;29;45421;-75
2024/03/18 09:12:41;;;;;;;;;4.00;4.00;;;;;23.98;45.34;101643.06;4900373;28;45365;-75
2024/03/18 09:15:07;;;;;;;;;4.00;4.00;;;;;24.00;45.35;101646.34;4899963;28;45476;-74
2024/03/18 09:17:32;;;;;;;;;4.00;3.33;;;;;23.98;45.21;101636.91;4900209;29;47007;-75
2024/03/18 09:19:58;;;;;;;;;4.00;4.00;;;;;24.04;45.10;101646.84;4900097;28;45332;-75
2024/03/18 09:22:23;;;;;;;;;3.67;3.67;;;;;24.06;45.12;101648.31;4899166;28;45299;-74
2024/03/18 09:24:48;;;;;;;;;4.00;3.00;;;;;24.05;45.42;101635.19;4900492;28;45409;-75
2024/03/18 09:27:14;;;;;;;;;3.00;2.00;;;;;24.11;45.34;101645.13;4900036;28;46304;-75
2024/03/18 09:29:39;;;;;;;;;5.00;5.00;;;;;24.12;45.31;101644.16;4899930;28;45276;-75
2024/03/18 09:32:04;;;;;;;;;3.00;3.00;;;;;24.11;45.09;101642.47;4900353;28;45291;-75
2024/03/18 09:34:30;;;;;;;;;4.00;4.00;;;;;24.15;45.34;101642.94;4900149;28;45332;-74
2024/03/18 09:36:55;;;;;;;;;3.67;3.67;;;;;24.16;45.35;101641.94;4899963;28;46274;-75
2024/03/18 09:39:21;;;;;;;;;5.00;4.00;;;;;24.09;45.63;101625.06;4899973;28;45245;-75
2024/03/18 09:41:52;;;;;;;;;4.00;2.67;;;;;24.07;45.40;101618.06;4900073;28;45644;-75
2024/03/18 09:44:18;;;;;;;;;3.33;3.00;;;;;24.15;45.40;101634.97;4899660;29;45375;-75
2024/03/18 09:46:44;;;;;;;;;6.33;4.00;;;;;24.20;45.21;101635.25;4899667;29;45380;-76
2024/03/18 09:49:17;;;;;;;;;5.00;4.00;;;;;24.13;45.38;101629.00;4899873;28;45363;-75
2024/03/18 09:51:47;;;;;;;;;2.33;2.00;;;;;24.22;45.22;101637.78;4900054;28;45387;-75
2024/03/18 09:54:17;;;;;;;;;4.33;2.33;;;;;24.25;45.19;101640.09;4914348;28;45361;-75
2024/03/18 09:56:55;;;;;;;;;2.33;2.00;;;;;24.26;45.35;101639.94;4899514;28;46208;-74
2024/03/18 09:59:20;;;;;;;;;3.00;3.00;;;;;24.19;45.28;101623.00;4899565;28;45220;-75
2024/03/18 10:01:45;;;;;;;;;5.00;3.33;;;;;24.25;45.22;101624.94;4899778;28;45247;-74
2024/03/18 10:04:11;;;;;;;;;5.33;3.33;;;;;24.27;44.90;101632.78;4898295;29;48544;-74
2024/03/18 10:06:39;;;;;;;;;1.00;1.00;;;;;24.29;45.19;101641.41;4899497;28;47249;-75
2024/03/18 10:09:05;;;;;;;;;4.67;4.33;;;;;24.27;45.20;101641.59;4899646;28;45317;-75
2024/03/18 10:11:30;;;;;;;;;4.00;3.00;;;;;24.16;45.57;101618.84;4899081;28;45511;-74
2024/03/18 10:13:55;;;;;;;;;5.67;3.33;;;;;24.24;45.02;101625.13;4898287;29;45370;-75
2024/03/18 10:16:22;;;;;;;;;6.00;3.00;;;;;24.33;45.24;101639.22;4899409;28;45362;-75
2024/03/18 10:18:47;;;;;;;;;2.00;2.00;;;;;24.23;45.16;101626.13;4899580;28;45359;-75
2024/03/18 10:21:13;;;;;;;;;2.00;2.00;;;;;24.33;45.24;101631.25;4899601;28;45481;-75
2024/03/18 10:23:45;;;;;;;;;4.00;4.00;;;;;24.34;45.09;101643.53;4899476;28;45379;-74
2024/03/18 10:26:15;;;;;;;;;4.00;4.00;;;;;24.32;45.08;101645.53;4899015;29;45412;-75
2024/03/18 10:28:41;;;;;;;;;4.67;3.00;;;;;24.33;45.16;101641.91;4899395;28;45238;-73
2024/03/18 10:31:07;;;;;;;;;3.33;3.33;;;;;24.33;45.36;101644.56;4899471;28;45625;-75
2024/03/18 10:33:33;;;;;;;;;3.33;3.33;;;;;24.32;45.10;101637.56;4899146;28;45329;-75
2024/03/18 10:36:01;;;;;;;;;5.00;4.00;;;;;24.31;45.09;101634.06;4899263;28;45583;-74
2024/03/18 10:38:30;;;;;;;;;2.00;2.00;;;;;24.26;44.97;101625.75;4899109;28;45477;-75
2024/03/18 10:40:56;;;;;;;;;3.33;3.33;;;;;24.35;44.97;101631.91;4899031;28;45246;-75
2024/03/18 10:43:32;;;;;;;;;4.00;4.00;;;;;24.34;45.01;101633.72;4899344;28;45360;-75
2024/03/18 10:45:59;;;;;;;;;5.33;4.67;;;;;24.25;45.28;101622.28;4899203;28;45454;-74
2024/03/18 10:48:26;;;;;;;;;3.00;2.00;;;;;24.34;45.12;101625.75;4899076;28;45470;-75
2024/03/18 10:50:52;;;;;;;;;3.00;3.00;;;;;24.34;44.99;101622.25;4899273;28;45426;-75
2024/03/18 10:53:21;;;;;;;;;2.33;2.33;;;;;24.35;44.78;101631.91;4913722;28;45458;-75
2024/03/18 10:55:55;;;;;;;;;3.00;3.00;;;;;24.33;45.25;101639.22;4898544;28;46258;-74
2024/03/18 10:58:24;;;;;;;;;2.00;2.00;;;;;24.25;45.21;101624.94;4898862;28;45367;-75
2024/03/18 11:00:49;;;;;;;;;2.67;2.33;;;;;24.25;45.19;101624.13;4899109;28;45448;-75
2024/03/18 11:03:23;;;;;;;;;3.00;3.00;;;;;24.26;45.22;101626.63;4898940;28;45367;-74
2024/03/18 11:05:54;;;;;;;;;2.67;2.67;;;;;24.30;45.09;101632.44;4898759;28;45320;-74
2024/03/18 11:08:24;;;;;;;;;4.00;2.33;;;;;24.29;45.40;101630.78;4898954;29;45392;-75
2024/03/18 11:10:52;;;;;;;;;2.00;2.00;;;;;24.26;45.28;101620.44;4913244;28;45312;-75
2024/03/18 11:13:20;;;;;;;;;5.00;3.00;;;;;24.17;45.21;101611.72;4898827;28;45393;-75
2024/03/18 11:15:48;;;;;;;;;3.00;3.00;;;;;24.28;45.25;101635.25;4898529;28;47203;-74
2024/03/18 11:18:19;;;;;;;;;3.67;2.00;;;;;24.25;45.56;101632.91;4898637;28;45373;-74
2024/03/18 11:20:46;;;;;;;;;3.00;2.00;;;;;24.27;45.20;101638.09;4898886;29;45289;-76
2024/03/18 11:23:23;;;;;;;;;1.33;1.00;;;;;24.28;45.55;101634.41;4898729;28;45396;-74